sensor_id;sensor_type;location;lat;lon;timestamp;P1;durP1;ratioP1;P2;durP2;ratioP2
4837;SDS011;2433;48.768;9.154;2024-02-26T00:01:36;2.70;;;0.80;;
4837;SDS011;2433;48.768;9.154;2024-02-26T00:04:01;0.70;;;0.70;;
4837;SDS011;2433;48.768;9.154;2024-02-26T00:06:28;0.93;;;0.80;;
4837;SDS011;2433;48.768;9.154;2024-02-26T00:08:54;1.60;;;0.70;;
4837;SDS011;2433;48.768;9.154;2024-02-26T00:11:20;1.30;;;1.00;;
4837;SDS011;2433;48.768;9.154;2024-02-26T00:13:45;1.07;;;0.80;;
4837;SDS011;2433;48.768;9.154;2024-02-26T00:16:11;1.23;;;1.13;;
4837;SDS011;2433;48.768;9.154;2024-02-26T00:18:36;1.83;;;1.40;;
4837;SDS011;2433;48.768;9.154;2024-02-26T00:21:02;1.90;;;1.50;;
4837;SDS011;2433;48.768;9.154;2024-02-26T00:23:28;2.90;;;1.10;;
4837;SDS011;2433;48.768;9.154;2024-02-26T00:25:54;2.60;;;1.00;;
4837;SDS011;2433;48.768;9.154;2024-02-26T00:28:20;1.33;;;1.23;;
4837;SDS011;2433;48.768;9.154;2024-02-26T00:30:46;0.97;;;0.87;;
4837;SDS011;2433;48.768;9.154;2024-02-26T00:33:12;2.17;;;1.00;;
4837;SDS011;2433;48.768;9.154;2024-02-26T00:35:38;1.30;;;1.20;;
4837;SDS011;2433;48.768;9.154;2024-02-26T00:38:04;3.83;;;1.63;;
4837;SDS011;2433;48.768;9.154;2024-02-26T00:40:30;1.00;;;0.67;;
4837;SDS011;2433;48.768;9.154;2024-02-26T00:42:56;1.30;;;0.80;;
4837;SDS011;2433;48.768;9.154;2024-02-26T00:45:21;1.10;;;0.80;;
4837;SDS011;2433;48.768;9.154;2024-02-26T00:47:47;2.80;;;1.20;;
4837;SDS011;2433;48.768;9.154;2024-02-26T00:50:14;1.73;;;1.10;;
4837;SDS011;2433;48.768;9.154;2024-02-26T00:52:40;1.37;;;1.27;;
4837;SDS011;2433;48.768;9.154;2024-02-26T00:55:06;1.37;;;1.10;;
4837;SDS011;2433;48.768;9.154;2024-02-26T00:57:32;0.80;;;0.70;;
4837;SDS011;2433;48.768;9.154;2024-02-26T00:59:58;2.53;;;1.37;;
4837;SDS011;2433;48.768;9.154;2024-02-26T01:02:24;1.13;;;0.97;;
4837;SDS011;2433;48.768;9.154;2024-02-26T01:04:50;2.70;;;0.97;;
4837;SDS011;2433;48.768;9.154;2024-02-26T01:07:16;1.10;;;1.00;;
4837;SDS011;2433;48.768;9.154;2024-02-26T01:09:42;0.97;;;0.87;;
4837;SDS011;2433;48.768;9.154;2024-02-26T01:12:08;1.77;;;1.30;;
4837;SDS011;2433;48.768;9.154;2024-02-26T01:14:34;2.03;;;1.37;;
4837;SDS011;2433;48.768;9.154;2024-02-26T01:16:59;1.07;;;0.83;;
4837;SDS011;2433;48.768;9.154;2024-02-26T01:19:25;0.67;;;0.60;;
4837;SDS011;2433;48.768;9.154;2024-02-26T01:21:51;1.30;;;1.17;;
4837;SDS011;2433;48.768;9.154;2024-02-26T01:24:16;1.73;;;1.17;;
4837;SDS011;2433;48.768;9.154;2024-02-26T01:26:42;1.03;;;0.97;;
4837;SDS011;2433;48.768;9.154;2024-02-26T01:29:08;2.00;;;1.00;;
4837;SDS011;2433;48.768;9.154;2024-02-26T01:31:33;0.93;;;0.83;;
4837;SDS011;2433;48.768;9.154;2024-02-26T01:33:59;0.90;;;0.87;;
4837;SDS011;2433;48.768;9.154;2024-02-26T01:36:25;2.20;;;1.00;;
4837;SDS011;2433;48.768;9.154;2024-02-26T01:38:51;2.70;;;1.60;;
4837;SDS011;2433;48.768;9.154;2024-02-26T01:41:16;1.27;;;1.10;;
4837;SDS011;2433;48.768;9.154;2024-02-26T01:43:42;3.60;;;0.77;;
4837;SDS011;2433;48.768;9.154;2024-02-26T01:46:11;1.10;;;0.80;;
4837;SDS011;2433;48.768;9.154;2024-02-26T01:48:42;0.90;;;0.77;;
4837;SDS011;2433;48.768;9.154;2024-02-26T01:51:08;2.60;;;1.53;;
4837;SDS011;2433;48.768;9.154;2024-02-26T01:53:35;1.00;;;0.90;;
4837;SDS011;2433;48.768;9.154;2024-02-26T01:56:01;1.10;;;1.00;;
4837;SDS011;2433;48.768;9.154;2024-02-26T01:58:28;1.57;;;1.00;;
4837;SDS011;2433;48.768;9.154;2024-02-26T02:00:55;0.80;;;0.60;;
4837;SDS011;2433;48.768;9.154;2024-02-26T02:03:21;2.07;;;1.60;;
4837;SDS011;2433;48.768;9.154;2024-02-26T02:05:47;1.40;;;1.30;;
4837;SDS011;2433;48.768;9.154;2024-02-26T02:08:13;1.03;;;0.90;;
4837;SDS011;2433;48.768;9.154;2024-02-26T02:10:39;1.40;;;1.30;;
4837;SDS011;2433;48.768;9.154;2024-02-26T02:13:07;2.33;;;1.20;;
4837;SDS011;2433;48.768;9.154;2024-02-26T02:15:32;1.57;;;0.97;;
4837;SDS011;2433;48.768;9.154;2024-02-26T02:17:58;2.13;;;1.37;;
4837;SDS011;2433;48.768;9.154;2024-02-26T02:20:33;0.97;;;0.63;;
4837;SDS011;2433;48.768;9.154;2024-02-26T02:22:59;1.07;;;0.97;;
4837;SDS011;2433;48.768;9.154;2024-02-26T02:25:25;3.10;;;1.07;;
4837;SDS011;2433;48.768;9.154;2024-02-26T02:27:51;2.83;;;1.40;;
4837;SDS011;2433;48.768;9.154;2024-02-26T02:30:18;1.00;;;0.90;;
4837;SDS011;2433;48.768;9.154;2024-02-26T02:32:44;1.43;;;0.77;;
4837;SDS011;2433;48.768;9.154;2024-02-26T02:35:10;1.60;;;1.30;;
4837;SDS011;2433;48.768;9.154;2024-02-26T02:37:35;2.60;;;0.90;;
4837;SDS011;2433;48.768;9.154;2024-02-26T02:40:02;1.57;;;0.90;;
4837;SDS011;2433;48.768;9.154;2024-02-26T02:42:28;1.30;;;1.20;;
4837;SDS011;2433;48.768;9.154;2024-02-26T02:44:54;0.87;;;0.87;;
4837;SDS011;2433;48.768;9.154;2024-02-26T02:47:20;1.50;;;1.17;;
4837;SDS011;2433;48.768;9.154;2024-02-26T02:49:45;1.30;;;1.00;;
4837;SDS011;2433;48.768;9.154;2024-02-26T02:52:11;1.33;;;0.80;;
4837;SDS011;2433;48.768;9.154;2024-02-26T02:54:36;1.03;;;0.77;;
4837;SDS011;2433;48.768;9.154;2024-02-26T02:57:05;1.53;;;0.83;;
4837;SDS011;2433;48.768;9.154;2024-02-26T02:59:31;0.90;;;0.90;;
4837;SDS011;2433;48.768;9.154;2024-02-26T03:01:56;1.27;;;1.17;;
4837;SDS011;2433;48.768;9.154;2024-02-26T03:04:22;1.73;;;0.97;;
4837;SDS011;2433;48.768;9.154;2024-02-26T03:06:48;1.53;;;0.90;;
4837;SDS011;2433;48.768;9.154;2024-02-26T03:09:14;0.70;;;0.70;;
4837;SDS011;2433;48.768;9.154;2024-02-26T03:11:39;0.80;;;0.67;;
4837;SDS011;2433;48.768;9.154;2024-02-26T03:14:05;1.00;;;0.73;;
4837;SDS011;2433;48.768;9.154;2024-02-26T03:16:31;1.17;;;0.70;;
4837;SDS011;2433;48.768;9.154;2024-02-26T03:18:57;1.63;;;0.60;;
4837;SDS011;2433;48.768;9.154;2024-02-26T03:21:24;0.70;;;0.57;;
4837;SDS011;2433;48.768;9.154;2024-02-26T03:23:50;0.70;;;0.53;;
4837;SDS011;2433;48.768;9.154;2024-02-26T03:26:16;0.57;;;0.37;;
4837;SDS011;2433;48.768;9.154;2024-02-26T03:28:42;1.37;;;0.67;;
4837;SDS011;2433;48.768;9.154;2024-02-26T03:31:07;0.90;;;0.47;;
4837;SDS011;2433;48.768;9.154;2024-02-26T03:33:33;0.60;;;0.40;;
4837;SDS011;2433;48.768;9.154;2024-02-26T03:35:59;0.60;;;0.50;;
4837;SDS011;2433;48.768;9.154;2024-02-26T03:38:25;1.93;;;0.70;;
4837;SDS011;2433;48.768;9.154;2024-02-26T03:40:50;0.70;;;0.50;;
4837;SDS011;2433;48.768;9.154;2024-02-26T03:43:16;0.70;;;0.53;;
4837;SDS011;2433;48.768;9.154;2024-02-26T03:45:42;3.10;;;0.70;;
4837;SDS011;2433;48.768;9.154;2024-02-26T03:48:07;0.83;;;0.57;;
4837;SDS011;2433;48.768;9.154;2024-02-26T03:50:33;1.03;;;0.97;;
4837;SDS011;2433;48.768;9.154;2024-02-26T03:52:59;1.37;;;0.60;;
4837;SDS011;2433;48.768;9.154;2024-02-26T03:55:25;0.93;;;0.80;;
4837;SDS011;2433;48.768;9.154;2024-02-26T03:57:51;0.70;;;0.50;;
4837;SDS011;2433;48.768;9.154;2024-02-26T04:00:17;1.40;;;0.80;;
4837;SDS011;2433;48.768;9.154;2024-02-26T04:02:43;0.70;;;0.67;;
4837;SDS011;2433;48.768;9.154;2024-02-26T04:05:09;0.93;;;0.50;;
4837;SDS011;2433;48.768;9.154;2024-02-26T04:07:35;0.70;;;0.50;;
4837;SDS011;2433;48.768;9.154;2024-02-26T04:10:01;1.73;;;0.87;;
4837;SDS011;2433;48.768;9.154;2024-02-26T04:12:30;2.73;;;1.10;;
4837;SDS011;2433;48.768;9.154;2024-02-26T04:14:55;1.00;;;0.80;;
4837;SDS011;2433;48.768;9.154;2024-02-26T04:17:21;1.33;;;0.80;;
4837;SDS011;2433;48.768;9.154;2024-02-26T04:19:47;2.10;;;1.40;;
4837;SDS011;2433;48.768;9.154;2024-02-26T04:22:12;1.07;;;0.97;;
4837;SDS011;2433;48.768;9.154;2024-02-26T04:24:38;1.20;;;0.93;;
4837;SDS011;2433;48.768;9.154;2024-02-26T04:27:03;2.13;;;1.30;;
4837;SDS011;2433;48.768;9.154;2024-02-26T04:29:29;1.37;;;1.03;;
4837;SDS011;2433;48.768;9.154;2024-02-26T04:31:55;1.90;;;1.30;;
4837;SDS011;2433;48.768;9.154;2024-02-26T04:34:20;2.90;;;1.33;;
4837;SDS011;2433;48.768;9.154;2024-02-26T04:36:46;1.70;;;1.37;;
4837;SDS011;2433;48.768;9.154;2024-02-26T04:39:13;2.97;;;1.00;;
4837;SDS011;2433;48.768;9.154;2024-02-26T04:41:39;1.20;;;0.93;;
4837;SDS011;2433;48.768;9.154;2024-02-26T04:44:05;1.27;;;1.00;;
4837;SDS011;2433;48.768;9.154;2024-02-26T04:46:30;1.80;;;1.17;;
4837;SDS011;2433;48.768;9.154;2024-02-26T04:48:56;1.53;;;1.00;;
4837;SDS011;2433;48.768;9.154;2024-02-26T04:51:22;1.87;;;1.07;;
4837;SDS011;2433;48.768;9.154;2024-02-26T04:53:48;1.30;;;0.80;;
4837;SDS011;2433;48.768;9.154;2024-02-26T04:56:14;1.43;;;1.10;;
4837;SDS011;2433;48.768;9.154;2024-02-26T04:58:40;1.40;;;1.10;;
4837;SDS011;2433;48.768;9.154;2024-02-26T05:01:05;2.07;;;1.27;;
4837;SDS011;2433;48.768;9.154;2024-02-26T05:03:31;1.13;;;1.03;;
4837;SDS011;2433;48.768;9.154;2024-02-26T05:05:56;1.57;;;0.97;;
4837;SDS011;2433;48.768;9.154;2024-02-26T05:08:23;2.10;;;1.10;;
4837;SDS011;2433;48.768;9.154;2024-02-26T05:10:49;0.73;;;0.63;;
4837;SDS011;2433;48.768;9.154;2024-02-26T05:13:14;1.03;;;0.90;;
4837;SDS011;2433;48.768;9.154;2024-02-26T05:15:43;1.47;;;1.23;;
4837;SDS011;2433;48.768;9.154;2024-02-26T05:18:09;1.10;;;1.00;;
4837;SDS011;2433;48.768;9.154;2024-02-26T05:20:34;0.80;;;0.73;;
4837;SDS011;2433;48.768;9.154;2024-02-26T05:23:01;1.23;;;1.03;;
4837;SDS011;2433;48.768;9.154;2024-02-26T05:25:27;1.77;;;1.20;;
4837;SDS011;2433;48.768;9.154;2024-02-26T05:27:52;2.40;;;1.10;;
4837;SDS011;2433;48.768;9.154;2024-02-26T05:30:18;1.03;;;0.97;;
4837;SDS011;2433;48.768;9.154;2024-02-26T05:32:43;1.77;;;1.20;;
4837;SDS011;2433;48.768;9.154;2024-02-26T05:35:09;1.10;;;1.00;;
4837;SDS011;2433;48.768;9.154;2024-02-26T05:37:34;1.23;;;0.90;;
4837;SDS011;2433;48.768;9.154;2024-02-26T05:40:00;3.73;;;1.53;;
4837;SDS011;2433;48.768;9.154;2024-02-26T05:42:26;3.47;;;1.27;;
4837;SDS011;2433;48.768;9.154;2024-02-26T05:44:51;1.70;;;1.60;;
4837;SDS011;2433;48.768;9.154;2024-02-26T05:47:17;1.23;;;1.13;;
4837;SDS011;2433;48.768;9.154;2024-02-26T05:49:43;1.67;;;0.83;;
4837;SDS011;2433;48.768;9.154;2024-02-26T05:52:08;0.80;;;0.80;;
4837;SDS011;2433;48.768;9.154;2024-02-26T05:54:34;1.53;;;1.27;;
4837;SDS011;2433;48.768;9.154;2024-02-26T05:57:01;0.87;;;0.80;;
4837;SDS011;2433;48.768;9.154;2024-02-26T05:59:27;1.50;;;1.33;;
4837;SDS011;2433;48.768;9.154;2024-02-26T06:01:53;1.20;;;1.03;;
4837;SDS011;2433;48.768;9.154;2024-02-26T06:04:18;2.67;;;1.33;;
4837;SDS011;2433;48.768;9.154;2024-02-26T06:06:44;1.17;;;1.07;;
4837;SDS011;2433;48.768;9.154;2024-02-26T06:09:11;1.00;;;0.80;;
4837;SDS011;2433;48.768;9.154;2024-02-26T06:11:36;1.40;;;0.93;;
4837;SDS011;2433;48.768;9.154;2024-02-26T06:14:02;1.93;;;1.50;;
4837;SDS011;2433;48.768;9.154;2024-02-26T06:16:28;1.87;;;1.77;;
4837;SDS011;2433;48.768;9.154;2024-02-26T06:18:54;2.10;;;1.20;;
4837;SDS011;2433;48.768;9.154;2024-02-26T06:21:19;1.20;;;0.93;;
4837;SDS011;2433;48.768;9.154;2024-02-26T06:23:45;1.27;;;1.17;;
4837;SDS011;2433;48.768;9.154;2024-02-26T06:26:13;1.33;;;0.90;;
4837;SDS011;2433;48.768;9.154;2024-02-26T06:28:38;6.80;;;1.67;;
4837;SDS011;2433;48.768;9.154;2024-02-26T06:31:05;2.50;;;1.00;;
4837;SDS011;2433;48.768;9.154;2024-02-26T06:33:31;1.17;;;0.90;;
4837;SDS011;2433;48.768;9.154;2024-02-26T06:35:57;1.93;;;1.23;;
4837;SDS011;2433;48.768;9.154;2024-02-26T06:38:23;1.37;;;1.20;;
4837;SDS011;2433;48.768;9.154;2024-02-26T06:40:48;1.90;;;1.33;;
4837;SDS011;2433;48.768;9.154;2024-02-26T06:43:14;1.70;;;1.20;;
4837;SDS011;2433;48.768;9.154;2024-02-26T06:45:40;2.20;;;1.43;;
4837;SDS011;2433;48.768;9.154;2024-02-26T06:48:06;2.20;;;1.37;;
4837;SDS011;2433;48.768;9.154;2024-02-26T06:50:32;1.50;;;1.40;;
4837;SDS011;2433;48.768;9.154;2024-02-26T06:52:57;1.30;;;1.20;;
4837;SDS011;2433;48.768;9.154;2024-02-26T06:55:23;1.60;;;1.10;;
4837;SDS011;2433;48.768;9.154;2024-02-26T06:57:49;2.50;;;1.50;;
4837;SDS011;2433;48.768;9.154;2024-02-26T07:00:15;1.43;;;1.00;;
4837;SDS011;2433;48.768;9.154;2024-02-26T07:02:42;2.40;;;1.67;;
4837;SDS011;2433;48.768;9.154;2024-02-26T07:05:08;1.70;;;1.60;;
4837;SDS011;2433;48.768;9.154;2024-02-26T07:07:34;1.37;;;1.20;;
4837;SDS011;2433;48.768;9.154;2024-02-26T07:10:00;1.60;;;1.40;;
4837;SDS011;2433;48.768;9.154;2024-02-26T07:12:29;1.70;;;0.80;;
4837;SDS011;2433;48.768;9.154;2024-02-26T07:14:55;1.33;;;1.20;;
4837;SDS011;2433;48.768;9.154;2024-02-26T07:17:20;0.80;;;0.80;;
4837;SDS011;2433;48.768;9.154;2024-02-26T07:19:46;2.43;;;1.13;;
4837;SDS011;2433;48.768;9.154;2024-02-26T07:22:11;0.90;;;0.60;;
4837;SDS011;2433;48.768;9.154;2024-02-26T07:24:37;1.47;;;1.37;;
4837;SDS011;2433;48.768;9.154;2024-02-26T07:27:03;1.33;;;1.23;;
4837;SDS011;2433;48.768;9.154;2024-02-26T07:29:29;1.63;;;1.20;;
4837;SDS011;2433;48.768;9.154;2024-02-26T07:31:54;2.43;;;2.00;;
4837;SDS011;2433;48.768;9.154;2024-02-26T07:34:20;1.07;;;0.93;;
4837;SDS011;2433;48.768;9.154;2024-02-26T07:36:45;1.20;;;0.90;;
4837;SDS011;2433;48.768;9.154;2024-02-26T07:39:11;1.20;;;1.10;;
4837;SDS011;2433;48.768;9.154;2024-02-26T07:41:36;2.57;;;1.40;;
4837;SDS011;2433;48.768;9.154;2024-02-26T07:44:04;0.70;;;0.70;;
4837;SDS011;2433;48.768;9.154;2024-02-26T07:46:29;4.53;;;0.90;;
4837;SDS011;2433;48.768;9.154;2024-02-26T07:48:55;1.20;;;0.90;;
4837;SDS011;2433;48.768;9.154;2024-02-26T07:51:21;1.33;;;1.20;;
4837;SDS011;2433;48.768;9.154;2024-02-26T07:53:47;2.93;;;1.03;;
4837;SDS011;2433;48.768;9.154;2024-02-26T07:56:13;1.40;;;1.10;;
4837;SDS011;2433;48.768;9.154;2024-02-26T07:58:38;1.57;;;1.23;;
4837;SDS011;2433;48.768;9.154;2024-02-26T08:01:04;1.27;;;1.03;;
4837;SDS011;2433;48.768;9.154;2024-02-26T08:03:30;1.93;;;1.30;;
4837;SDS011;2433;48.768;9.154;2024-02-26T08:05:55;3.43;;;1.40;;
4837;SDS011;2433;48.768;9.154;2024-02-26T08:08:21;1.00;;;0.97;;
4837;SDS011;2433;48.768;9.154;2024-02-26T08:10:47;2.40;;;1.53;;
4837;SDS011;2433;48.768;9.154;2024-02-26T08:13:12;1.73;;;1.57;;
4837;SDS011;2433;48.768;9.154;2024-02-26T08:15:38;2.33;;;1.53;;
4837;SDS011;2433;48.768;9.154;2024-02-26T08:18:04;1.63;;;1.30;;
4837;SDS011;2433;48.768;9.154;2024-02-26T08:20:30;1.80;;;1.70;;
4837;SDS011;2433;48.768;9.154;2024-02-26T08:22:56;1.50;;;1.33;;
4837;SDS011;2433;48.768;9.154;2024-02-26T08:25:23;2.13;;;1.50;;
4837;SDS011;2433;48.768;9.154;2024-02-26T08:27:49;1.43;;;1.33;;
4837;SDS011;2433;48.768;9.154;2024-02-26T08:30:15;2.40;;;2.10;;
4837;SDS011;2433;48.768;9.154;2024-02-26T08:32:48;2.47;;;1.80;;
4837;SDS011;2433;48.768;9.154;2024-02-26T08:35:14;2.33;;;2.07;;
4837;SDS011;2433;48.768;9.154;2024-02-26T08:37:40;1.63;;;1.50;;
4837;SDS011;2433;48.768;9.154;2024-02-26T08:40:06;2.03;;;1.20;;
4837;SDS011;2433;48.768;9.154;2024-02-26T08:42:32;1.57;;;1.47;;
4837;SDS011;2433;48.768;9.154;2024-02-26T08:44:58;1.70;;;1.30;;
4837;SDS011;2433;48.768;9.154;2024-02-26T08:47:27;1.40;;;1.30;;
4837;SDS011;2433;48.768;9.154;2024-02-26T08:49:53;0.80;;;0.80;;
4837;SDS011;2433;48.768;9.154;2024-02-26T08:52:19;2.53;;;0.90;;
4837;SDS011;2433;48.768;9.154;2024-02-26T08:54:45;2.03;;;1.40;;
4837;SDS011;2433;48.768;9.154;2024-02-26T08:57:10;1.73;;;1.63;;
4837;SDS011;2433;48.768;9.154;2024-02-26T08:59:36;2.50;;;1.30;;
4837;SDS011;2433;48.768;9.154;2024-02-26T09:02:02;1.37;;;1.27;;
4837;SDS011;2433;48.768;9.154;2024-02-26T09:04:28;1.37;;;1.13;;
4837;SDS011;2433;48.768;9.154;2024-02-26T09:06:54;3.60;;;1.60;;
4837;SDS011;2433;48.768;9.154;2024-02-26T09:09:20;1.47;;;1.30;;
4837;SDS011;2433;48.768;9.154;2024-02-26T09:11:47;2.00;;;1.50;;
4837;SDS011;2433;48.768;9.154;2024-02-26T09:14:17;2.20;;;1.40;;
4837;SDS011;2433;48.768;9.154;2024-02-26T09:16:42;1.97;;;1.50;;
4837;SDS011;2433;48.768;9.154;2024-02-26T09:19:08;2.50;;;1.20;;
4837;SDS011;2433;48.768;9.154;2024-02-26T09:21:33;3.63;;;1.30;;
4837;SDS011;2433;48.768;9.154;2024-02-26T09:23:59;2.77;;;1.13;;
4837;SDS011;2433;48.768;9.154;2024-02-26T09:26:24;0.90;;;0.87;;
4837;SDS011;2433;48.768;9.154;2024-02-26T09:28:50;1.80;;;1.20;;
4837;SDS011;2433;48.768;9.154;2024-02-26T09:31:17;1.40;;;1.30;;
4837;SDS011;2433;48.768;9.154;2024-02-26T09:33:43;1.20;;;1.00;;
4837;SDS011;2433;48.768;9.154;2024-02-26T09:36:09;1.27;;;1.10;;
4837;SDS011;2433;48.768;9.154;2024-02-26T09:38:36;3.50;;;1.60;;
4837;SDS011;2433;48.768;9.154;2024-02-26T09:41:04;1.40;;;1.23;;
4837;SDS011;2433;48.768;9.154;2024-02-26T09:43:33;3.70;;;1.77;;
4837;SDS011;2433;48.768;9.154;2024-02-26T09:45:59;3.50;;;1.57;;
4837;SDS011;2433;48.768;9.154;2024-02-26T09:48:25;3.17;;;2.60;;
4837;SDS011;2433;48.768;9.154;2024-02-26T09:50:51;2.53;;;1.63;;
4837;SDS011;2433;48.768;9.154;2024-02-26T09:53:16;5.20;;;1.70;;
4837;SDS011;2433;48.768;9.154;2024-02-26T09:55:42;3.23;;;1.53;;
4837;SDS011;2433;48.768;9.154;2024-02-26T09:58:08;1.63;;;0.90;;
4837;SDS011;2433;48.768;9.154;2024-02-26T10:00:36;3.13;;;1.60;;
4837;SDS011;2433;48.768;9.154;2024-02-26T10:03:03;2.13;;;1.23;;
4837;SDS011;2433;48.768;9.154;2024-02-26T10:05:30;2.77;;;1.30;;
4837;SDS011;2433;48.768;9.154;2024-02-26T10:07:57;5.13;;;2.03;;
4837;SDS011;2433;48.768;9.154;2024-02-26T10:10:23;4.20;;;1.90;;
4837;SDS011;2433;48.768;9.154;2024-02-26T10:12:49;7.40;;;1.80;;
4837;SDS011;2433;48.768;9.154;2024-02-26T10:15:15;3.53;;;2.40;;
4837;SDS011;2433;48.768;9.154;2024-02-26T10:17:41;2.43;;;2.23;;
4837;SDS011;2433;48.768;9.154;2024-02-26T10:20:11;2.73;;;2.00;;
4837;SDS011;2433;48.768;9.154;2024-02-26T10:22:38;5.00;;;3.03;;
4837;SDS011;2433;48.768;9.154;2024-02-26T10:25:03;3.10;;;2.27;;
4837;SDS011;2433;48.768;9.154;2024-02-26T10:27:29;5.03;;;2.67;;
4837;SDS011;2433;48.768;9.154;2024-02-26T10:29:56;3.67;;;2.50;;
4837;SDS011;2433;48.768;9.154;2024-02-26T10:32:22;2.03;;;1.43;;
4837;SDS011;2433;48.768;9.154;2024-02-26T10:34:48;3.50;;;2.20;;
4837;SDS011;2433;48.768;9.154;2024-02-26T10:37:13;17.53;;;2.43;;
4837;SDS011;2433;48.768;9.154;2024-02-26T10:39:39;4.53;;;2.00;;
4837;SDS011;2433;48.768;9.154;2024-02-26T10:42:12;1.50;;;1.40;;
4837;SDS011;2433;48.768;9.154;2024-02-26T10:44:39;3.30;;;2.20;;
4837;SDS011;2433;48.768;9.154;2024-02-26T10:47:05;2.40;;;1.80;;
4837;SDS011;2433;48.768;9.154;2024-02-26T10:49:33;5.00;;;2.20;;
4837;SDS011;2433;48.768;9.154;2024-02-26T10:52:01;2.23;;;2.03;;
4837;SDS011;2433;48.768;9.154;2024-02-26T10:54:27;1.53;;;1.30;;
4837;SDS011;2433;48.768;9.154;2024-02-26T10:56:56;2.20;;;1.20;;
4837;SDS011;2433;48.768;9.154;2024-02-26T10:59:22;3.40;;;1.90;;
4837;SDS011;2433;48.768;9.154;2024-02-26T11:01:48;3.97;;;2.13;;
4837;SDS011;2433;48.768;9.154;2024-02-26T11:04:15;2.97;;;1.33;;
4837;SDS011;2433;48.768;9.154;2024-02-26T11:06:41;1.90;;;1.10;;
4837;SDS011;2433;48.768;9.154;2024-02-26T11:09:08;1.80;;;1.70;;
4837;SDS011;2433;48.768;9.154;2024-02-26T11:11:38;3.80;;;2.20;;
4837;SDS011;2433;48.768;9.154;2024-02-26T11:14:05;2.57;;;1.53;;
4837;SDS011;2433;48.768;9.154;2024-02-26T11:16:32;2.80;;;1.70;;
4837;SDS011;2433;48.768;9.154;2024-02-26T11:19:00;3.80;;;1.70;;
4837;SDS011;2433;48.768;9.154;2024-02-26T11:21:27;1.77;;;1.63;;
4837;SDS011;2433;48.768;9.154;2024-02-26T11:24:05;2.33;;;1.73;;
4837;SDS011;2433;48.768;9.154;2024-02-26T11:26:32;3.23;;;1.73;;
4837;SDS011;2433;48.768;9.154;2024-02-26T11:29:00;3.20;;;1.90;;
4837;SDS011;2433;48.768;9.154;2024-02-26T11:31:26;3.90;;;1.70;;
4837;SDS011;2433;48.768;9.154;2024-02-26T11:33:53;2.87;;;1.23;;
4837;SDS011;2433;48.768;9.154;2024-02-26T11:36:19;4.53;;;1.53;;
4837;SDS011;2433;48.768;9.154;2024-02-26T11:38:46;2.97;;;1.50;;
4837;SDS011;2433;48.768;9.154;2024-02-26T11:41:14;2.60;;;1.60;;
4837;SDS011;2433;48.768;9.154;2024-02-26T11:43:50;3.20;;;1.90;;
4837;SDS011;2433;48.768;9.154;2024-02-26T11:48:53;2.57;;;1.83;;
4837;SDS011;2433;48.768;9.154;2024-02-26T11:51:25;3.73;;;2.20;;
4837;SDS011;2433;48.768;9.154;2024-02-26T11:53:54;2.63;;;1.83;;
4837;SDS011;2433;48.768;9.154;2024-02-26T11:56:22;3.43;;;1.20;;
4837;SDS011;2433;48.768;9.154;2024-02-26T11:58:48;2.33;;;1.70;;
4837;SDS011;2433;48.768;9.154;2024-02-26T12:04:18;3.77;;;1.33;;
4837;SDS011;2433;48.768;9.154;2024-02-26T12:06:46;4.20;;;2.73;;
4837;SDS011;2433;48.768;9.154;2024-02-26T12:09:31;1.80;;;1.53;;
4837;SDS011;2433;48.768;9.154;2024-02-26T12:12:06;3.60;;;2.27;;
4837;SDS011;2433;48.768;9.154;2024-02-26T12:14:34;1.83;;;1.40;;
4837;SDS011;2433;48.768;9.154;2024-02-26T12:17:20;2.60;;;1.77;;
4837;SDS011;2433;48.768;9.154;2024-02-26T12:19:47;2.10;;;1.70;;
4837;SDS011;2433;48.768;9.154;2024-02-26T12:22:13;4.87;;;1.53;;
4837;SDS011;2433;48.768;9.154;2024-02-26T12:24:39;1.37;;;1.00;;
4837;SDS011;2433;48.768;9.154;2024-02-26T12:27:05;3.43;;;1.53;;
4837;SDS011;2433;48.768;9.154;2024-02-26T12:29:31;3.60;;;1.90;;
4837;SDS011;2433;48.768;9.154;2024-02-26T12:31:57;2.83;;;1.37;;
4837;SDS011;2433;48.768;9.154;2024-02-26T12:34:23;7.30;;;1.33;;
4837;SDS011;2433;48.768;9.154;2024-02-26T12:36:49;3.97;;;1.50;;
4837;SDS011;2433;48.768;9.154;2024-02-26T12:39:15;1.80;;;1.30;;
4837;SDS011;2433;48.768;9.154;2024-02-26T12:41:40;2.37;;;1.30;;
4837;SDS011;2433;48.768;9.154;2024-02-26T12:44:07;2.30;;;1.70;;
4837;SDS011;2433;48.768;9.154;2024-02-26T12:46:33;2.43;;;1.40;;
4837;SDS011;2433;48.768;9.154;2024-02-26T12:48:59;2.80;;;1.60;;
4837;SDS011;2433;48.768;9.154;2024-02-26T12:51:25;2.40;;;1.50;;
4837;SDS011;2433;48.768;9.154;2024-02-26T12:53:52;1.83;;;1.10;;
4837;SDS011;2433;48.768;9.154;2024-02-26T12:56:19;4.77;;;1.90;;
4837;SDS011;2433;48.768;9.154;2024-02-26T12:58:47;2.80;;;1.90;;
4837;SDS011;2433;48.768;9.154;2024-02-26T13:01:16;3.90;;;1.43;;
4837;SDS011;2433;48.768;9.154;2024-02-26T13:03:43;2.47;;;1.90;;
4837;SDS011;2433;48.768;9.154;2024-02-26T13:06:09;1.40;;;1.30;;
4837;SDS011;2433;48.768;9.154;2024-02-26T13:08:35;1.20;;;1.10;;
4837;SDS011;2433;48.768;9.154;2024-02-26T13:11:00;2.90;;;1.90;;
4837;SDS011;2433;48.768;9.154;2024-02-26T13:13:26;2.10;;;1.57;;
4837;SDS011;2433;48.768;9.154;2024-02-26T13:16:05;1.73;;;0.93;;
4837;SDS011;2433;48.768;9.154;2024-02-26T13:18:33;1.10;;;0.80;;
4837;SDS011;2433;48.768;9.154;2024-02-26T13:21:09;3.00;;;1.47;;
4837;SDS011;2433;48.768;9.154;2024-02-26T13:23:35;0.87;;;0.57;;
4837;SDS011;2433;48.768;9.154;2024-02-26T13:26:01;3.20;;;1.10;;
4837;SDS011;2433;48.768;9.154;2024-02-26T13:28:26;1.33;;;0.90;;
4837;SDS011;2433;48.768;9.154;2024-02-26T13:30:56;1.10;;;0.90;;
4837;SDS011;2433;48.768;9.154;2024-02-26T13:33:22;1.13;;;0.83;;
4837;SDS011;2433;48.768;9.154;2024-02-26T13:35:49;0.70;;;0.60;;
4837;SDS011;2433;48.768;9.154;2024-02-26T13:38:14;0.90;;;0.70;;
4837;SDS011;2433;48.768;9.154;2024-02-26T13:40:40;1.73;;;1.10;;
4837;SDS011;2433;48.768;9.154;2024-02-26T13:43:06;1.47;;;0.83;;
4837;SDS011;2433;48.768;9.154;2024-02-26T13:45:35;1.50;;;0.90;;
4837;SDS011;2433;48.768;9.154;2024-02-26T13:48:07;0.63;;;0.63;;
4837;SDS011;2433;48.768;9.154;2024-02-26T13:50:35;0.83;;;0.57;;
4837;SDS011;2433;48.768;9.154;2024-02-26T13:53:01;0.73;;;0.50;;
4837;SDS011;2433;48.768;9.154;2024-02-26T13:55:27;1.03;;;0.50;;
4837;SDS011;2433;48.768;9.154;2024-02-26T13:57:57;0.50;;;0.30;;
4837;SDS011;2433;48.768;9.154;2024-02-26T14:00:24;2.00;;;0.80;;
4837;SDS011;2433;48.768;9.154;2024-02-26T14:02:50;3.80;;;1.00;;
4837;SDS011;2433;48.768;9.154;2024-02-26T14:05:16;0.73;;;0.30;;
4837;SDS011;2433;48.768;9.154;2024-02-26T14:07:42;2.90;;;1.70;;
4837;SDS011;2433;48.768;9.154;2024-02-26T14:10:08;0.90;;;0.53;;
4837;SDS011;2433;48.768;9.154;2024-02-26T14:12:35;0.60;;;0.53;;
4837;SDS011;2433;48.768;9.154;2024-02-26T14:15:01;0.90;;;0.70;;
4837;SDS011;2433;48.768;9.154;2024-02-26T14:17:30;1.17;;;0.93;;
4837;SDS011;2433;48.768;9.154;2024-02-26T14:19:56;0.70;;;0.50;;
4837;SDS011;2433;48.768;9.154;2024-02-26T14:22:21;1.10;;;0.50;;
4837;SDS011;2433;48.768;9.154;2024-02-26T14:24:47;1.23;;;0.50;;
4837;SDS011;2433;48.768;9.154;2024-02-26T14:27:13;0.50;;;0.33;;
4837;SDS011;2433;48.768;9.154;2024-02-26T14:29:45;0.60;;;0.40;;
4837;SDS011;2433;48.768;9.154;2024-02-26T14:32:10;0.80;;;0.30;;
4837;SDS011;2433;48.768;9.154;2024-02-26T14:34:36;2.17;;;0.80;;
4837;SDS011;2433;48.768;9.154;2024-02-26T14:37:02;1.00;;;0.43;;
4837;SDS011;2433;48.768;9.154;2024-02-26T14:39:28;1.80;;;0.50;;
4837;SDS011;2433;48.768;9.154;2024-02-26T14:41:54;1.07;;;0.57;;
4837;SDS011;2433;48.768;9.154;2024-02-26T14:44:20;0.80;;;0.40;;
4837;SDS011;2433;48.768;9.154;2024-02-26T14:46:46;0.50;;;0.20;;
4837;SDS011;2433;48.768;9.154;2024-02-26T14:49:11;0.80;;;0.40;;
4837;SDS011;2433;48.768;9.154;2024-02-26T14:51:38;0.60;;;0.40;;
4837;SDS011;2433;48.768;9.154;2024-02-26T14:54:03;0.60;;;0.43;;
4837;SDS011;2433;48.768;9.154;2024-02-26T14:56:29;0.60;;;0.50;;
4837;SDS011;2433;48.768;9.154;2024-02-26T14:58:55;0.50;;;0.40;;
4837;SDS011;2433;48.768;9.154;2024-02-26T15:01:21;0.63;;;0.37;;
4837;SDS011;2433;48.768;9.154;2024-02-26T15:03:46;2.50;;;0.57;;
4837;SDS011;2433;48.768;9.154;2024-02-26T15:06:12;0.63;;;0.50;;
4837;SDS011;2433;48.768;9.154;2024-02-26T15:08:38;1.43;;;0.53;;
4837;SDS011;2433;48.768;9.154;2024-02-26T15:11:04;0.70;;;0.50;;
4837;SDS011;2433;48.768;9.154;2024-02-26T15:13:30;1.13;;;0.30;;
4837;SDS011;2433;48.768;9.154;2024-02-26T15:15:56;0.83;;;0.50;;